Time;durP1;ratioP1;P1;durP2;ratioP2;P2;SDS_P1;SDS_P2;PMS_P1;PMS_P2;Temp;Humidity;BMP_temperature;BMP_pressure;BME280_temperature;BME280_humidity;BME280_pressure;Samples;Min_cycle;Max_cycle;Signal;HPM_P1;HPM_P2
2022/10/04 00:02:28;;;;;;;22.02;7.20;;;11.80;99.90;;;;;;5012313;28;20136;-76
2022/10/04 00:05:02;;;;;;;18.05;7.72;;;11.80;99.90;;;;;;5006664;28;20038;-77
2022/10/04 00:07:34;;;;;;;22.20;7.73;;;11.70;99.90;;;;;;5063010;28;20052;-78
2022/10/04 00:10:17;;;;;;;20.38;7.18;;;11.60;99.90;;;;;;5058160;28;20084;-82
2022/10/04 00:13:05;;;;;;;21.15;7.30;;;11.70;99.90;;;;;;5060116;28;20032;-83
2022/10/04 00:15:38;;;;;;;26.75;7.78;;;11.70;99.90;;;;;;5063802;28;20044;-81
2022/10/04 00:18:19;;;;;;;20.02;7.13;;;11.60;99.90;;;;;;5069502;28;20371;-79
2022/10/04 00:20:49;;;;;;;17.13;6.50;;;11.70;99.90;;;;;;5062242;28;20101;-80
2022/10/04 00:23:24;;;;;;;24.35;7.05;;;11.70;99.90;;;;;;5062044;28;20062;-80
2022/10/04 00:25:51;;;;;;;;;;;11.70;99.90;;;;;;5045038;28;20036;-82
2022/10/04 00:28:19;;;;;;;20.05;6.70;;;11.60;99.90;;;;;;5062303;28;19927;-82
2022/10/04 00:31:16;;;;;;;24.45;7.60;;;11.60;99.90;;;;;;5062702;28;20810;-79
2022/10/04 00:34:07;;;;;;;17.15;6.65;;;11.70;99.90;;;;;;5059723;28;20105;-80
2022/10/04 00:36:55;;;;;;;23.25;7.07;;;11.60;99.90;;;;;;4985348;28;20133;-80
2022/10/04 00:39:32;;;;;;;23.17;7.13;;;11.60;99.90;;;;;;4965910;28;20579;-81
2022/10/04 00:42:12;;;;;;;19.30;7.03;;;11.50;99.90;;;;;;4952202;28;20546;-79
2022/10/04 00:44:44;;;;;;;19.48;7.35;;;11.60;99.90;;;;;;4965924;28;20050;-81
2022/10/04 00:47:20;;;;;;;24.05;6.68;;;11.60;99.90;;;;;;4980249;28;20042;-84
2022/10/04 00:49:47;;;;;;;24.23;6.95;;;11.60;99.90;;;;;;4954262;28;20037;-82
2022/10/04 00:52:24;;;;;;;19.05;6.72;;;11.50;99.90;;;;;;4972947;28;20050;-81
2022/10/04 00:54:56;;;;;;;23.23;7.65;;;11.60;99.90;;;;;;4969004;28;20061;-76
2022/10/04 00:57:29;;;;;;;19.90;7.20;;;11.60;99.90;;;;;;4968509;28;20050;-80
2022/10/04 01:00:03;;;;;;;22.52;6.82;;;11.40;99.90;;;;;;4982773;28;20050;-81
2022/10/04 01:02:42;;;;;;;17.75;6.85;;;11.50;99.90;;;;;;4969047;28;20050;-79
2022/10/04 01:05:16;;;;;;;19.77;6.88;;;11.50;99.90;;;;;;4974301;28;20046;-82
2022/10/04 01:08:02;;;;;;;21.73;6.78;;;11.40;99.90;;;;;;4968502;28;20726;-80
2022/10/04 01:10:31;;;;;;;22.92;7.82;;;11.50;99.90;;;;;;4970775;28;20129;-81
2022/10/04 01:13:06;;;;;;;21.15;7.25;;;11.40;99.90;;;;;;4979480;28;20053;-79
2022/10/04 01:16:12;;;;;;;22.33;7.55;;;11.50;99.90;;;;;;5065370;28;20036;-76
2022/10/04 01:18:38;;;;;;;;;;;11.40;99.90;;;;;;5066603;28;20066;-81
2022/10/04 01:21:06;;;;;;;23.55;7.05;;;11.50;99.90;;;;;;5064929;28;19920;-79
2022/10/04 01:23:33;;;;;;;25.90;7.80;;;11.40;99.90;;;;;;5062918;28;20135;-77
2022/10/04 01:25:58;;;;;;;24.38;8.48;;;11.40;99.90;;;;;;5058360;28;20051;-78
2022/10/04 01:28:25;;;;;;;21.98;7.70;;;11.50;99.90;;;;;;5061716;28;20032;-78
2022/10/04 01:30:51;;;;;;;23.38;7.47;;;11.40;99.90;;;;;;5044627;28;20036;-79
2022/10/04 01:33:18;;;;;;;24.00;7.25;;;11.40;99.90;;;;;;5044122;28;20039;-78
2022/10/04 01:35:44;;;;;;;21.52;7.70;;;11.40;99.90;;;;;;5032052;28;20134;-79
2022/10/04 01:38:10;;;;;;;19.95;7.75;;;11.40;99.90;;;;;;5046247;28;20126;-80
2022/10/04 01:40:45;;;;;;;22.42;8.15;;;11.40;99.90;;;;;;5062846;28;20193;-80
2022/10/04 01:43:15;;;;;;;27.95;8.50;;;11.40;99.90;;;;;;5042509;28;20052;-84
2022/10/04 01:45:50;;;;;;;25.95;8.27;;;11.40;99.90;;;;;;5043066;28;21617;-81
2022/10/04 01:48:22;;;;;;;21.30;8.02;;;11.40;99.90;;;;;;5055087;28;20039;-78
2022/10/04 01:50:57;;;;;;;27.58;7.90;;;11.40;99.90;;;;;;5058165;28;20036;-77
2022/10/04 01:53:27;;;;;;;22.27;8.23;;;11.40;99.90;;;;;;5042528;28;20534;-80
2022/10/04 01:56:07;;;;;;;24.92;8.90;;;11.40;99.90;;;;;;5047096;28;20056;-85
2022/10/04 01:59:13;;;;;;;20.75;8.52;;;11.40;99.90;;;;;;5046201;28;20040;-79
2022/10/04 02:01:49;;;;;;;25.40;9.32;;;11.30;99.90;;;;;;4956611;28;20592;-79
2022/10/04 02:04:33;;;;;;;24.00;9.02;;;11.40;99.90;;;;;;4956517;28;20062;-79
2022/10/04 02:07:00;;;;;;;25.23;8.90;;;11.40;99.90;;;;;;4955831;28;20094;-79
2022/10/04 02:09:33;;;;;;;24.40;9.18;;;11.40;99.90;;;;;;4966656;28;20387;-79
2022/10/04 02:12:00;;;;;;;27.48;9.43;;;11.40;99.90;;;;;;4959730;28;20038;-78
2022/10/04 02:14:32;;;;;;;28.98;9.23;;;11.40;99.90;;;;;;4964090;28;20434;-83
2022/10/04 02:17:00;;;;;;;27.85;9.27;;;11.40;99.90;;;;;;4944530;28;20061;-79
2022/10/04 02:19:34;;;;;;;20.33;8.88;;;11.30;99.90;;;;;;4956351;28;20085;-79
2022/10/04 02:22:03;;;;;;;28.05;9.23;;;11.30;99.90;;;;;;4951554;28;20138;-80
2022/10/04 02:24:32;;;;;;;22.48;9.13;;;11.20;99.90;;;;;;4979537;28;20054;-77
2022/10/04 02:26:58;;;;;;;28.02;8.98;;;11.20;99.90;;;;;;4959422;28;20148;-80
2022/10/04 02:29:25;;;;;;;24.80;9.27;;;11.10;99.90;;;;;;4961515;28;20045;-82
2022/10/04 02:34:36;;;;;;;26.55;9.52;;;11.10;99.90;;;;;;5040133;28;20163;-78
2022/10/04 02:37:04;;;;;;;19.13;9.15;;;11.10;99.90;;;;;;5059046;28;20046;-78
2022/10/04 02:39:42;;;;;;;29.38;8.70;;;11.10;99.90;;;;;;5064926;28;20036;-81
2022/10/04 02:42:14;;;;;;;21.90;9.45;;;11.00;99.90;;;;;;5036984;28;20101;-78
2022/10/04 02:44:52;;;;;;;20.08;9.27;;;11.10;99.90;;;;;;5041641;28;20127;-79
2022/10/04 02:47:22;;;;;;;24.15;8.90;;;11.00;99.90;;;;;;5063637;28;20100;-75
2022/10/04 02:49:52;;;;;;;21.77;9.07;;;11.00;99.90;;;;;;5060976;28;20040;-76
2022/10/04 02:52:49;;;;;;;23.88;8.90;;;11.00;99.90;;;;;;5059592;28;20360;-80
2022/10/04 02:55:22;;;;;;;23.98;9.52;;;11.00;99.90;;;;;;4977881;28;21278;-79
2022/10/04 02:57:51;;;;;;;23.05;8.68;;;11.00;99.90;;;;;;4972903;28;20056;-80
2022/10/04 03:00:27;;;;;;;32.38;10.63;;;11.00;99.90;;;;;;4992878;28;20052;-80
2022/10/04 03:03:18;;;;;;;23.88;9.90;;;10.90;99.90;;;;;;4973819;28;20137;-78
2022/10/04 03:05:56;;;;;;;26.67;10.65;;;10.90;99.90;;;;;;4996566;28;20357;-79
2022/10/04 03:08:22;;;;;;;29.17;10.48;;;10.90;99.90;;;;;;4978030;28;22361;-77
2022/10/04 03:10:49;;;;;;;24.92;10.30;;;10.80;99.90;;;;;;4973462;28;20170;-78
2022/10/04 03:13:18;;;;;;;23.73;10.30;;;10.90;99.90;;;;;;4990956;28;20052;-80
2022/10/04 03:15:44;;;;;;;30.55;10.25;;;10.80;99.90;;;;;;4974998;28;20053;-78
2022/10/04 03:18:10;;;;;;;24.60;10.70;;;10.90;99.90;;;;;;4990204;28;20060;-78
2022/10/04 03:20:40;;;;;;;28.55;10.63;;;10.80;99.90;;;;;;4975777;28;20042;-81
2022/10/04 03:23:06;;;;;;;27.88;9.93;;;10.80;99.90;;;;;;4976038;28;20101;-80
2022/10/04 03:25:44;;;;;;;28.08;10.38;;;10.80;99.90;;;;;;4960254;28;21597;-79
2022/10/04 03:28:10;;;;;;;21.88;10.18;;;10.70;99.90;;;;;;4991932;28;20049;-80
2022/10/04 03:30:36;;;;;;;24.80;10.73;;;10.70;99.90;;;;;;5002545;28;20056;-79
2022/10/04 03:33:02;;;;;;;26.35;10.63;;;10.70;99.90;;;;;;5059023;28;21616;-80
2022/10/04 03:35:37;;;;;;;23.35;10.23;;;10.70;99.90;;;;;;5053469;28;20538;-78
2022/10/04 03:38:10;;;;;;;24.02;10.43;;;10.60;99.90;;;;;;5056635;28;20158;-80
2022/10/04 03:40:37;;;;;;;35.58;10.75;;;10.70;99.90;;;;;;5037857;28;20464;-80
2022/10/04 03:43:04;;;;;;;27.25;10.45;;;10.60;99.90;;;;;;5053127;28;20507;-76
2022/10/04 03:45:33;;;;;;;24.10;10.73;;;10.60;99.90;;;;;;5041508;28;20102;-79
2022/10/04 03:48:13;;;;;;;30.65;10.77;;;10.50;99.90;;;;;;5055112;28;20036;-80
2022/10/04 03:50:47;;;;;;;24.48;10.57;;;10.50;99.90;;;;;;5050740;28;20037;-81
2022/10/04 03:53:27;;;;;;;27.90;10.95;;;10.50;99.90;;;;;;5041791;28;20635;-82
2022/10/04 03:55:53;;;;;;;26.63;11.20;;;10.50;99.90;;;;;;5058547;28;20555;-79
2022/10/04 03:58:20;;;;;;;23.90;11.10;;;10.60;99.90;;;;;;5058982;28;20218;-77
2022/10/04 04:01:03;;;;;;;23.23;11.35;;;10.50;99.90;;;;;;5058413;28;20120;-76
2022/10/04 04:03:37;;;;;;;27.70;11.05;;;10.60;99.90;;;;;;5060393;28;20041;-82
2022/10/04 04:06:14;;;;;;;24.13;11.05;;;10.50;99.90;;;;;;5056295;28;20060;-77
2022/10/04 04:08:43;;;;;;;28.33;10.57;;;10.60;99.90;;;;;;5041865;28;20064;-76
2022/10/04 04:11:23;;;;;;;23.48;10.70;;;10.60;99.90;;;;;;5021615;28;20049;-79
2022/10/04 04:13:53;;;;;;;24.50;10.35;;;10.50;99.90;;;;;;5037004;28;20174;-78
2022/10/04 04:16:24;;;;;;;25.13;10.80;;;10.50;99.90;;;;;;5040950;28;20067;-75
2022/10/04 04:18:53;;;;;;;32.72;11.27;;;10.50;99.90;;;;;;5054773;28;20067;-78
2022/10/04 04:21:23;;;;;;;24.75;11.13;;;10.50;99.90;;;;;;5040832;28;20068;-79
2022/10/04 04:24:02;;;;;;;27.52;11.40;;;10.50;99.90;;;;;;5043642;28;20148;-80
2022/10/04 04:26:44;;;;;;;22.90;11.43;;;10.40;99.90;;;;;;5039203;28;20456;-80
2022/10/04 04:29:10;;;;;;;24.67;10.60;;;10.50;99.90;;;;;;5038977;28;20470;-78
2022/10/04 04:31:42;;;;;;;29.15;10.48;;;10.40;99.90;;;;;;5040315;28;20051;-82
2022/10/04 04:34:32;;;;;;;24.77;10.38;;;10.50;99.90;;;;;;5059398;28;20046;-79
2022/10/04 04:37:00;;;;;;;24.83;10.80;;;10.40;99.90;;;;;;5057230;28;20047;-76
2022/10/04 04:39:36;;;;;;;25.80;10.13;;;10.40;99.90;;;;;;5055040;28;20063;-77
2022/10/04 04:42:13;;;;;;;22.88;10.13;;;10.30;99.90;;;;;;5057730;28;20040;-81
2022/10/04 04:44:54;;;;;;;23.40;10.23;;;10.30;99.90;;;;;;5054472;28;20051;-80
2022/10/04 04:47:32;;;;;;;23.90;10.68;;;10.30;99.90;;;;;;5058573;28;20074;-79
2022/10/04 04:50:23;;;;;;;22.92;10.60;;;10.40;99.90;;;;;;5060447;28;20071;-80
2022/10/04 04:53:00;;;;;;;29.27;10.57;;;10.30;99.90;;;;;;5058598;28;20045;-79
2022/10/04 04:55:31;;;;;;;20.90;10.93;;;10.30;99.90;;;;;;5058217;28;20051;-81
2022/10/04 04:57:58;;;;;;;28.27;11.35;;;10.40;99.90;;;;;;5060114;28;20384;-80
2022/10/04 05:00:32;;;;;;;27.50;11.23;;;10.30;99.90;;;;;;5062828;28;20475;-78
2022/10/04 05:03:00;;;;;;;25.95;11.45;;;10.30;99.90;;;;;;5063822;28;20056;-81
2022/10/04 05:05:31;;;;;;;25.23;11.05;;;10.20;99.90;;;;;;5052875;28;20415;-77
2022/10/04 05:08:28;;;;;;;28.80;12.45;;;10.20;99.90;;;;;;5079321;28;20070;-76
2022/10/04 05:10:57;;;;;;;26.65;11.70;;;10.20;99.90;;;;;;5055774;28;20051;-81
2022/10/04 05:13:35;;;;;;;26.75;10.95;;;10.20;99.90;;;;;;5043283;28;20260;-81
2022/10/04 05:16:18;;;;;;;26.80;11.65;;;10.10;99.90;;;;;;5063928;28;20055;-81
2022/10/04 05:18:44;;;;;;;24.10;11.88;;;10.10;99.90;;;;;;5064696;28;20042;-82
2022/10/04 05:21:24;;;;;;;32.90;11.70;;;10.00;99.90;;;;;;5064260;28;20118;-80
2022/10/04 05:23:50;;;;;;;30.30;12.57;;;10.00;99.90;;;;;;5044741;28;20078;-81
2022/10/04 05:26:24;;;;;;;27.55;11.90;;;10.10;99.90;;;;;;5056774;28;20044;-82
2022/10/04 05:28:50;;;;;;;29.13;11.30;;;9.90;99.90;;;;;;5057551;28;20404;-77
2022/10/04 05:31:29;;;;;;;27.45;12.77;;;9.90;99.90;;;;;;5058840;28;20029;-81
2022/10/04 05:33:59;;;;;;;26.20;12.15;;;9.90;99.90;;;;;;5042860;28;20044;-79
2022/10/04 05:36:46;;;;;;;25.20;12.57;;;9.80;99.90;;;;;;5061447;28;20052;-82
2022/10/04 05:39:41;;;;;;;23.95;12.65;;;9.80;99.90;;;;;;5043267;28;20078;-78
2022/10/04 05:42:34;;;;;;;26.60;13.23;;;9.80;99.90;;;;;;5044046;28;20043;-83
2022/10/04 05:45:00;;;;;;;31.60;13.85;;;9.90;99.90;;;;;;5058118;28;20337;-80
2022/10/04 05:47:29;;;;;;;27.20;13.00;;;9.70;99.90;;;;;;5042496;28;20064;-79
2022/10/04 05:49:57;;;;;;;32.10;13.82;;;9.80;99.90;;;;;;5060466;28;20040;-79
2022/10/04 05:52:37;;;;;;;30.33;13.23;;;9.80;99.90;;;;;;5049735;28;20080;-78
2022/10/04 05:55:27;;;;;;;28.05;13.60;;;9.70;99.90;;;;;;5058464;28;20041;-81
2022/10/04 05:57:58;;;;;;;27.52;13.68;;;9.70;99.90;;;;;;5057659;28;20049;-81
2022/10/04 06:00:50;;;;;;;24.10;13.73;;;9.70;99.90;;;;;;5043394;28;23569;-79
2022/10/04 06:03:58;;;;;;;28.08;14.00;;;9.70;99.90;;;;;;5044893;28;20047;-76
2022/10/04 06:06:49;;;;;;;39.40;14.25;;;9.70;99.90;;;;;;5055689;28;20052;-79
2022/10/04 06:09:46;;;;;;;28.25;13.73;;;9.70;99.90;;;;;;5039973;28;20134;-80
2022/10/04 06:12:42;;;;;;;26.88;13.63;;;9.70;99.90;;;;;;5058365;28;20052;-80
2022/10/04 06:15:31;;;;;;;26.60;13.38;;;9.70;99.90;;;;;;5047639;28;20143;-78
2022/10/04 06:18:26;;;;;;;27.63;13.32;;;9.70;99.90;;;;;;5049333;28;20048;-78
2022/10/04 06:21:00;;;;;;;23.60;13.30;;;9.70;99.90;;;;;;5041861;28;20040;-78
2022/10/04 06:23:27;;;;;;;30.10;14.00;;;9.70;99.90;;;;;;5051645;28;20058;-76
2022/10/04 06:26:08;;;;;;;28.67;14.32;;;9.90;99.90;;;;;;5061506;28;20067;-77
2022/10/04 06:28:48;;;;;;;24.55;14.35;;;9.80;99.90;;;;;;5034671;28;20076;-76
2022/10/04 06:31:26;;;;;;;28.50;14.00;;;9.90;99.90;;;;;;5050775;28;20531;-82
2022/10/04 06:34:12;;;;;;;28.00;14.68;;;9.90;99.90;;;;;;5065239;28;20582;-82
2022/10/04 06:36:54;;;;;;;28.88;14.73;;;10.00;99.90;;;;;;4967349;28;20046;-77
2022/10/04 06:39:20;;;;;;;28.95;14.05;;;10.10;99.90;;;;;;4981926;28;20154;-81
2022/10/04 06:42:07;;;;;;;27.38;14.75;;;10.20;99.90;;;;;;4964370;28;20046;-80
2022/10/04 06:44:50;;;;;;;30.50;14.00;;;10.20;99.90;;;;;;4990592;28;20129;-81
2022/10/04 06:47:53;;;;;;;34.10;15.13;;;10.20;99.90;;;;;;4994767;28;20058;-80
2022/10/04 06:50:25;;;;;;;26.85;13.90;;;10.30;99.90;;;;;;4955256;28;20053;-81
2022/10/04 06:53:15;;;;;;;26.98;14.57;;;10.40;99.90;;;;;;4981867;28;20035;-80
2022/10/04 06:56:15;;;;;;;29.70;15.20;;;10.50;99.90;;;;;;4968133;28;20069;-78
2022/10/04 06:59:02;;;;;;;28.30;14.85;;;10.60;99.90;;;;;;4988725;28;20049;-79
2022/10/04 07:01:33;;;;;;;29.25;14.88;;;10.70;99.90;;;;;;4983882;28;20520;-79
2022/10/04 07:04:24;;;;;;;25.33;13.85;;;10.90;99.90;;;;;;4969321;28;20141;-79
2022/10/04 07:07:34;;;;;;;30.23;14.88;;;11.00;99.90;;;;;;4966707;28;20437;-82
2022/10/04 07:10:24;;;;;;;24.75;14.18;;;11.00;99.90;;;;;;4984517;28;20050;-80
2022/10/04 07:13:02;;;;;;;29.65;14.77;;;11.20;99.90;;;;;;4975263;28;20453;-79
2022/10/04 07:15:35;;;;;;;27.23;13.80;;;11.20;99.90;;;;;;5064774;28;20051;-78
2022/10/04 07:18:06;;;;;;;26.88;14.05;;;11.30;99.90;;;;;;5060888;28;20056;-79
2022/10/04 07:20:34;;;;;;;30.92;14.30;;;11.30;99.90;;;;;;5081684;28;20057;-80
2022/10/04 07:23:23;;;;;;;26.52;13.88;;;11.30;99.90;;;;;;5062130;28;20131;-78
2022/10/04 07:25:53;;;;;;;31.33;13.85;;;11.40;99.90;;;;;;5081360;28;20055;-82
2022/10/04 07:31:28;;;;;;;25.08;13.65;;;11.50;99.90;;;;;;5067087;28;20109;-79
2022/10/04 07:34:02;;;;;;;28.50;13.90;;;11.60;99.90;;;;;;5055174;28;20058;-80
2022/10/04 07:36:54;;;;;;;22.95;13.25;;;11.70;99.90;;;;;;5029548;28;20048;-81
2022/10/04 07:39:37;;;;;;;25.95;13.48;;;11.90;99.90;;;;;;5045361;28;20097;-80
2022/10/04 07:42:18;;;;;;;24.73;13.23;;;12.20;99.90;;;;;;5075958;28;20065;-80
2022/10/04 07:44:53;;;;;;;25.45;13.50;;;12.30;99.90;;;;;;5070070;28;20048;-81
2022/10/04 07:47:25;;;;;;;31.10;13.15;;;12.40;99.90;;;;;;5065611;28;20047;-80
2022/10/04 07:49:52;;;;;;;23.20;12.52;;;12.40;99.90;;;;;;5040577;28;20044;-81
2022/10/04 07:52:36;;;;;;;34.42;12.98;;;12.50;99.90;;;;;;5089281;28;20054;-78
2022/10/04 07:55:27;;;;;;;23.95;12.18;;;12.50;99.90;;;;;;5051610;28;20048;-80
2022/10/04 07:58:08;;;;;;;25.27;12.27;;;12.50;99.90;;;;;;5036852;28;20108;-80
2022/10/04 08:00:49;;;;;;;21.52;12.60;;;12.50;99.90;;;;;;5051801;28;20059;-80
2022/10/04 08:03:43;;;;;;;24.27;12.00;;;12.50;99.90;;;;;;5053645;28;20134;-80
2022/10/04 08:06:18;;;;;;;24.35;11.05;;;12.50;99.90;;;;;;5064546;28;20047;-77
2022/10/04 08:09:21;;;;;;;23.38;11.63;;;12.50;99.90;;;;;;5076371;28;20040;-79
2022/10/04 08:11:56;;;;;;;23.90;11.93;;;12.40;99.90;;;;;;5065510;28;20106;-77
2022/10/04 08:14:46;;;;;;;25.02;12.45;;;12.30;99.90;;;;;;5049369;28;20432;-78
2022/10/04 08:17:17;;;;;;;28.95;13.25;;;12.40;99.90;;;;;;5041721;28;20527;-77
2022/10/04 08:20:04;;;;;;;22.42;12.48;;;12.30;99.90;;;;;;5058228;28;20064;-79
2022/10/04 08:22:58;;;;;;;22.02;12.30;;;12.40;99.90;;;;;;5069634;28;20117;-77
2022/10/04 08:25:38;;;;;;;27.33;11.85;;;12.50;99.90;;;;;;5038073;28;20074;-79
2022/10/04 08:30:51;;;;;;;26.10;12.18;;;12.60;99.90;;;;;;5066407;28;20149;-80
2022/10/04 08:33:59;;;;;;;26.20;12.32;;;12.70;99.90;;;;;;5047821;28;20210;-79
2022/10/04 08:36:58;;;;;;;25.13;12.18;;;12.70;99.90;;;;;;5047619;28;20118;-79
2022/10/04 08:39:45;;;;;;;23.17;11.77;;;12.80;99.90;;;;;;5051041;28;20135;-79
2022/10/04 08:42:23;;;;;;;23.30;11.90;;;12.80;99.90;;;;;;5067064;28;20186;-82
2022/10/04 08:45:01;;;;;;;23.70;11.65;;;12.90;99.90;;;;;;5062251;28;20059;-79
2022/10/04 08:48:05;;;;;;;21.77;10.02;;;12.90;99.90;;;;;;5061707;28;20036;-78
2022/10/04 08:50:54;;;;;;;18.02;10.80;;;13.10;99.90;;;;;;5055080;28;20072;-80
2022/10/04 08:53:47;;;;;;;22.40;10.48;;;13.20;99.90;;;;;;5068244;28;20051;-83
2022/10/04 08:56:43;;;;;;;23.50;9.35;;;13.10;99.90;;;;;;5060267;28;20074;-79
2022/10/04 08:59:14;;;;;;;21.73;9.63;;;13.20;99.90;;;;;;5065485;28;20482;-80
2022/10/04 09:02:12;;;;;;;19.83;9.32;;;13.20;99.90;;;;;;5072721;28;20044;-81
2022/10/04 09:05:10;;;;;;;20.90;9.48;;;13.30;99.90;;;;;;5010047;28;20184;-83
2022/10/04 09:07:47;;;;;;;21.58;8.50;;;13.30;99.90;;;;;;4983959;28;20790;-80
2022/10/04 09:10:35;;;;;;;24.33;8.57;;;13.40;99.90;;;;;;4978811;28;20053;-80
2022/10/04 09:13:21;;;;;;;12.68;8.18;;;13.50;99.90;;;;;;4917825;29;20094;-81
2022/10/04 09:15:57;;;;;;;18.63;8.18;;;13.50;99.90;;;;;;4930449;29;20109;-80
2022/10/04 09:18:50;;;;;;;17.35;7.47;;;13.60;99.90;;;;;;4926917;29;20242;-79
2022/10/04 09:21:54;;;;;;;15.93;8.15;;;13.60;99.90;;;;;;4922306;29;20117;-79
2022/10/04 09:25:02;;;;;;;14.38;7.32;;;13.70;99.90;;;;;;4921578;29;20416;-82
2022/10/04 09:27:35;;;;;;;14.57;7.35;;;13.70;99.90;;;;;;4937328;29;20750;-80
2022/10/04 09:30:20;;;;;;;16.08;6.70;;;13.70;99.90;;;;;;4923092;29;20047;-78
2022/10/04 09:33:04;;;;;;;13.27;6.72;;;13.80;99.90;;;;;;4937045;29;20108;-82
2022/10/04 09:35:54;;;;;;;16.03;6.27;;;13.90;99.90;;;;;;4955343;29;20141;-76
2022/10/04 09:38:49;;;;;;;16.45;6.30;;;14.00;99.90;;;;;;4925454;29;20118;-81
2022/10/04 09:41:46;;;;;;;15.65;6.28;;;13.90;99.90;;;;;;4966880;28;20160;-78
2022/10/04 09:44:52;;;;;;;14.07;6.55;;;14.00;99.90;;;;;;4966638;28;20073;-83
2022/10/04 09:47:52;;;;;;;11.75;6.35;;;14.10;99.90;;;;;;4983640;28;20050;-78
2022/10/04 09:50:40;;;;;;;17.25;6.93;;;14.10;99.90;;;;;;5027615;28;20107;-79
2022/10/04 09:53:24;;;;;;;17.70;6.97;;;14.20;99.90;;;;;;5047238;28;20508;-78
2022/10/04 09:56:09;;;;;;;11.77;5.47;;;14.30;99.90;;;;;;5047071;28;20072;-78
2022/10/04 09:58:40;;;;;;;;;;;14.30;99.90;;;;;;5054056;28;20044;-78
2022/10/04 10:01:17;;;;;;;12.65;5.18;;;14.30;99.90;;;;;;5051692;28;20309;-81
2022/10/04 10:04:07;;;;;;;11.95;5.70;;;14.40;99.90;;;;;;5055856;28;20052;-80
2022/10/04 10:06:54;;;;;;;15.32;5.82;;;14.40;99.90;;;;;;5038733;28;20059;-80
2022/10/04 10:15:57;;;;;;;17.30;7.65;;;14.60;99.90;;;;;;5063429;28;20135;-80
2022/10/04 10:18:55;;;;;;;13.27;7.13;;;14.70;99.90;;;;;;5021797;28;20049;-79
2022/10/04 10:21:25;;;;;;;18.10;7.28;;;14.80;99.90;;;;;;5048367;28;20064;-78
2022/10/04 10:23:59;;;;;;;15.43;6.75;;;15.00;99.90;;;;;;5065766;28;20052;-81
2022/10/04 10:26:40;;;;;;;10.60;6.22;;;15.10;99.90;;;;;;5076260;28;20043;-81
2022/10/04 10:29:08;;;;;;;14.90;6.22;;;15.20;99.90;;;;;;5074413;28;20044;-79
2022/10/04 10:32:00;;;;;;;12.38;6.07;;;15.20;99.90;;;;;;5053049;28;20618;-80
2022/10/04 10:35:04;;;;;;;13.60;5.75;;;15.30;99.90;;;;;;5065966;28;20052;-82
2022/10/04 10:37:42;;;;;;;13.75;5.15;;;15.30;99.90;;;;;;5070387;28;20464;-79
2022/10/04 10:40:22;;;;;;;11.55;4.65;;;15.30;99.90;;;;;;5050997;28;20051;-80
2022/10/04 10:43:05;;;;;;;7.85;4.18;;;15.40;99.90;;;;;;5069509;28;20496;-77
2022/10/04 10:46:17;;;;;;;10.63;4.82;;;15.40;99.90;;;;;;5055168;28;20060;-80
2022/10/04 10:48:57;;;;;;;10.02;4.82;;;15.50;99.90;;;;;;5066354;28;20120;-81
2022/10/04 10:51:58;;;;;;;13.80;4.35;;;15.50;99.90;;;;;;5061973;28;20085;-81
2022/10/04 10:55:10;;;;;;;10.30;4.40;;;15.70;99.90;;;;;;5050714;28;20082;-80
2022/10/04 10:58:05;;;;;;;12.18;4.65;;;15.80;99.90;;;;;;5064124;28;20094;-84
2022/10/04 11:00:50;;;;;;;9.15;4.63;;;16.00;99.90;;;;;;5063267;28;20039;-81
2022/10/04 11:03:40;;;;;;;8.50;4.67;;;16.20;99.90;;;;;;5067155;28;20044;-83
2022/10/04 11:06:37;;;;;;;11.18;4.30;;;16.20;99.90;;;;;;5063778;28;20287;-79
2022/10/04 11:09:15;;;;;;;12.27;4.40;;;16.20;99.90;;;;;;5049295;28;20496;-80
2022/10/04 11:11:54;;;;;;;12.75;4.57;;;16.10;99.90;;;;;;5046741;28;20044;-83
2022/10/04 11:14:46;;;;;;;8.48;4.35;;;16.20;99.90;;;;;;5051235;28;20423;-80
2022/10/04 11:17:32;;;;;;;13.30;4.10;;;16.40;99.90;;;;;;5049200;28;20055;-82
2022/10/04 11:20:32;;;;;;;10.60;4.15;;;16.30;99.90;;;;;;5065920;28;20564;-82
2022/10/04 11:23:33;;;;;;;14.07;4.75;;;16.30;99.90;;;;;;5064749;28;20083;-80
2022/10/04 11:26:18;;;;;;;10.05;4.70;;;16.20;99.90;;;;;;5066041;28;20059;-80
2022/10/04 11:29:21;;;;;;;8.05;4.68;;;16.20;99.90;;;;;;5050039;28;20092;-79
2022/10/04 11:32:19;;;;;;;8.00;4.50;;;16.30;99.90;;;;;;5065860;28;20062;-81
2022/10/04 11:34:58;;;;;;;12.43;4.40;;;16.30;99.90;;;;;;4954051;28;20557;-84
2022/10/04 11:37:46;;;;;;;12.07;4.18;;;16.50;99.90;;;;;;4970886;28;20129;-78
2022/10/04 11:40:44;;;;;;;10.38;4.30;;;16.60;99.90;;;;;;4971542;28;20050;-80
2022/10/04 11:43:30;;;;;;;10.30;3.85;;;16.60;99.90;;;;;;4947409;28;20179;-82
2022/10/04 11:46:21;;;;;;;7.22;3.97;;;16.60;99.90;;;;;;4945153;28;20061;-79
2022/10/04 11:49:10;;;;;;;9.88;4.32;;;16.50;99.90;;;;;;4950467;28;20056;-78
2022/10/04 11:51:46;;;;;;;6.78;4.30;;;16.50;99.90;;;;;;4962889;28;20077;-82
2022/10/04 11:54:17;;;;;;;9.10;4.35;;;16.50;99.90;;;;;;4964344;28;20096;-79
2022/10/04 11:56:55;;;;;;;9.35;4.03;;;16.50;99.90;;;;;;4951714;28;20572;-80
2022/10/04 11:59:38;;;;;;;15.85;4.43;;;16.60;99.90;;;;;;4970875;28;20495;-79
2022/10/04 12:02:19;;;;;;;12.57;4.85;;;16.80;99.90;;;;;;4948777;28;20105;-80
2022/10/04 12:05:00;;;;;;;11.45;4.50;;;16.80;99.90;;;;;;4954341;28;20073;-80
2022/10/04 12:07:57;;;;;;;12.68;4.30;;;16.80;99.90;;;;;;4953188;28;20550;-78
2022/10/04 12:10:36;;;;;;;8.07;4.15;;;16.90;99.90;;;;;;4927664;29;20051;-83
2022/10/04 12:13:18;;;;;;;9.30;4.35;;;17.00;99.90;;;;;;4965097;28;20108;-82
2022/10/04 12:16:11;;;;;;;8.98;4.65;;;17.00;99.90;;;;;;4980900;28;20396;-78
2022/10/04 12:19:19;;;;;;;13.20;4.82;;;16.90;99.90;;;;;;5007934;28;20102;-83
2022/10/04 12:21:45;;;;;;;8.75;4.45;;;17.00;99.90;;;;;;5062794;28;20058;-83
2022/10/04 12:24:39;;;;;;;8.70;4.68;;;17.10;99.90;;;;;;5076183;28;20056;-79
2022/10/04 12:27:28;;;;;;;10.95;4.35;;;17.10;99.90;;;;;;5053727;28;20483;-82
2022/10/04 12:30:02;;;;;;;11.05;4.45;;;17.30;99.90;;;;;;5062832;28;20368;-83
2022/10/04 12:32:53;;;;;;;7.10;4.22;;;17.30;99.90;;;;;;5058733;28;20087;-81
2022/10/04 12:35:30;;;;;;;9.05;5.00;;;17.50;99.90;;;;;;5036039;28;20433;-79
2022/10/04 12:38:12;;;;;;;17.27;4.93;;;17.50;99.90;;;;;;5075690;28;20459;-81
2022/10/04 12:40:49;;;;;;;7.25;4.22;;;17.60;99.90;;;;;;5054357;28;20078;-79
2022/10/04 12:43:35;;;;;;;9.77;4.45;;;17.60;99.90;;;;;;5053779;28;20071;-83
2022/10/04 12:46:07;;;;;;;14.23;4.95;;;17.70;99.90;;;;;;5071062;28;20109;-82
2022/10/04 12:48:54;;;;;;;9.88;4.65;;;17.60;99.90;;;;;;5055098;28;20047;-81
2022/10/04 12:51:51;;;;;;;9.85;4.45;;;17.80;99.90;;;;;;5065265;28;21037;-78
2022/10/04 12:54:35;;;;;;;13.18;4.82;;;17.80;99.90;;;;;;5046490;28;20469;-81
2022/10/04 12:57:28;;;;;;;10.00;4.60;;;17.80;99.90;;;;;;5089341;28;20101;-86
2022/10/04 13:00:13;;;;;;;10.57;4.10;;;18.00;99.90;;;;;;5045581;28;20165;-82
2022/10/04 13:02:53;;;;;;;7.50;4.15;;;18.00;99.90;;;;;;5045887;28;20036;-78
2022/10/04 13:05:22;;;;;;;10.75;3.95;;;18.00;99.90;;;;;;5054272;28;20048;-78
2022/10/04 13:08:42;;;;;;;8.02;3.95;;;18.20;99.90;;;;;;5051663;28;20048;-80
2022/10/04 13:11:44;;;;;;;6.95;3.97;;;18.20;99.90;;;;;;5007409;28;20153;-82
2022/10/04 13:14:48;;;;;;;10.80;4.05;;;18.10;99.90;;;;;;4985391;28;20152;-80
2022/10/04 13:17:16;;;;;;;11.15;4.15;;;18.00;99.90;;;;;;4983443;28;20165;-80
2022/10/04 13:20:12;;;;;;;8.52;4.10;;;17.90;99.90;;;;;;4986600;28;20147;-83
2022/10/04 13:22:44;;;;;;;10.20;4.10;;;18.00;99.90;;;;;;4998102;28;20139;-80
2022/10/04 13:25:24;;;;;;;7.65;4.07;;;18.00;99.90;;;;;;4986595;28;20042;-80
2022/10/04 13:28:09;;;;;;;7.25;3.42;;;18.10;99.90;;;;;;4985398;28;20061;-80
2022/10/04 13:30:45;;;;;;;8.80;4.00;;;18.20;99.90;;;;;;4990165;28;20045;-78
2022/10/04 13:33:13;;;;;;;16.38;4.25;;;18.10;99.90;;;;;;5005817;28;20505;-81
2022/10/04 13:36:15;;;;;;;7.13;3.78;;;18.10;99.90;;;;;;4990445;28;20081;-79
2022/10/04 13:39:18;;;;;;;8.25;3.67;;;18.20;99.90;;;;;;4990196;28;20152;-81
2022/10/04 13:42:14;;;;;;;10.15;3.63;;;18.10;99.90;;;;;;5016053;28;20044;-78
2022/10/04 13:44:58;;;;;;;7.97;3.63;;;18.00;99.90;;;;;;5065861;28;20050;-76
2022/10/04 13:47:45;;;;;;;10.13;3.90;;;17.80;99.90;;;;;;5049690;28;20390;-80
2022/10/04 13:50:16;;;;;;;12.02;3.78;;;17.70;99.90;;;;;;5073088;28;20056;-82
2022/10/04 13:59:04;;;;;;;7.32;3.45;;;17.60;99.90;;;;;;5061820;28;20055;-79
2022/10/04 14:02:21;;;;;;;7.78;3.28;;;17.70;99.90;;;;;;5062997;28;20171;-80
2022/10/04 14:05:15;;;;;;;9.10;3.60;;;17.70;99.90;;;;;;4987820;28;20056;-78
2022/10/04 14:08:05;;;;;;;8.98;3.50;;;17.80;99.90;;;;;;4985389;28;22325;-82